sensor_id;sensor_type;location;lat;lon;timestamp;pressure;altitude;pressure_sealevel;temperature
28803;BMP280;15949;55.656;37.422;2024-02-04T00:01:58;96309.97;;;-2.01
28803;BMP280;15949;55.656;37.422;2024-02-04T00:07:04;96295.72;;;-2.02
28803;BMP280;15949;55.656;37.422;2024-02-04T00:12:10;96286.59;;;-2.03
28803;BMP280;15949;55.656;37.422;2024-02-04T00:17:16;96274.91;;;-2.04
28803;BMP280;15949;55.656;37.422;2024-02-04T00:22:22;96263.66;;;-2.03
28803;BMP280;15949;55.656;37.422;2024-02-04T00:27:28;96262.91;;;-2.03
28803;BMP280;15949;55.656;37.422;2024-02-04T00:32:34;96250.91;;;-2.03
28803;BMP280;15949;55.656;37.422;2024-02-04T00:37:39;96231.97;;;-2.02
28803;BMP280;15949;55.656;37.422;2024-02-04T00:42:45;96232.59;;;-2.05
28803;BMP280;15949;55.656;37.422;2024-02-04T00:47:51;96232.81;;;-1.98
28803;BMP280;15949;55.656;37.422;2024-02-04T00:52:56;96227.84;;;-1.94
28803;BMP280;15949;55.656;37.422;2024-02-04T00:58:02;96211.22;;;-1.88
28803;BMP280;15949;55.656;37.422;2024-02-04T01:03:08;96206.97;;;-1.84
28803;BMP280;15949;55.656;37.422;2024-02-04T01:08:14;96196.53;;;-1.79
28803;BMP280;15949;55.656;37.422;2024-02-04T01:13:20;96187.59;;;-1.73
28803;BMP280;15949;55.656;37.422;2024-02-04T01:18:25;96170.06;;;-1.74
28803;BMP280;15949;55.656;37.422;2024-02-04T01:23:31;96178.25;;;-1.69
28803;BMP280;15949;55.656;37.422;2024-02-04T01:28:37;96178.75;;;-1.63
28803;BMP280;15949;55.656;37.422;2024-02-04T01:33:43;96159.50;;;-1.61
28803;BMP280;15949;55.656;37.422;2024-02-04T01:38:48;96156.31;;;-1.58
28803;BMP280;15949;55.656;37.422;2024-02-04T01:43:54;96153.94;;;-1.51
28803;BMP280;15949;55.656;37.422;2024-02-04T01:49:00;96142.84;;;-1.43
28803;BMP280;15949;55.656;37.422;2024-02-04T01:54:07;96130.16;;;-1.39
28803;BMP280;15949;55.656;37.422;2024-02-04T01:59:13;96126.94;;;-1.36
28803;BMP280;15949;55.656;37.422;2024-02-04T02:04:19;96118.78;;;-1.26
28803;BMP280;15949;55.656;37.422;2024-02-04T02:09:26;96117.09;;;-1.22
28803;BMP280;15949;55.656;37.422;2024-02-04T02:14:33;96115.38;;;-1.18
28803;BMP280;15949;55.656;37.422;2024-02-04T02:25:03;96098.53;;;-1.03
28803;BMP280;15949;55.656;37.422;2024-02-04T02:30:10;96108.44;;;-1.02
28803;BMP280;15949;55.656;37.422;2024-02-04T02:35:17;96097.66;;;-0.95
28803;BMP280;15949;55.656;37.422;2024-02-04T02:40:29;96083.97;;;-0.87
28803;BMP280;15949;55.656;37.422;2024-02-04T02:45:35;96073.94;;;-0.76
28803;BMP280;15949;55.656;37.422;2024-02-04T02:50:42;96068.94;;;-0.73
28803;BMP280;15949;55.656;37.422;2024-02-04T02:55:47;96063.22;;;-0.66
28803;BMP280;15949;55.656;37.422;2024-02-04T03:00:53;96060.09;;;-0.60
28803;BMP280;15949;55.656;37.422;2024-02-04T03:05:59;96053.31;;;-0.52
28803;BMP280;15949;55.656;37.422;2024-02-04T03:11:05;96049.81;;;-0.44
28803;BMP280;15949;55.656;37.422;2024-02-04T03:16:11;96044.03;;;-0.41
28803;BMP280;15949;55.656;37.422;2024-02-04T03:21:17;96044.84;;;-0.37
28803;BMP280;15949;55.656;37.422;2024-02-04T03:26:25;96035.41;;;-0.33
28803;BMP280;15949;55.656;37.422;2024-02-04T03:31:31;96034.06;;;-0.27
28803;BMP280;15949;55.656;37.422;2024-02-04T03:36:37;96033.41;;;-0.24
28803;BMP280;15949;55.656;37.422;2024-02-04T03:41:46;96018.13;;;-0.20
28803;BMP280;15949;55.656;37.422;2024-02-04T03:46:52;96020.34;;;-0.19
28803;BMP280;15949;55.656;37.422;2024-02-04T03:51:58;96025.19;;;-0.14
28803;BMP280;15949;55.656;37.422;2024-02-04T03:57:04;96019.72;;;-0.12
28803;BMP280;15949;55.656;37.422;2024-02-04T04:02:09;96015.97;;;-0.18
28803;BMP280;15949;55.656;37.422;2024-02-04T04:07:15;96016.03;;;-0.15
28803;BMP280;15949;55.656;37.422;2024-02-04T04:12:21;96000.00;;;-0.12
28803;BMP280;15949;55.656;37.422;2024-02-04T04:17:27;96004.44;;;-0.09
28803;BMP280;15949;55.656;37.422;2024-02-04T04:22:32;96001.88;;;-0.09
28803;BMP280;15949;55.656;37.422;2024-02-04T04:27:38;95997.13;;;-0.10
28803;BMP280;15949;55.656;37.422;2024-02-04T04:32:44;95994.94;;;-0.08
28803;BMP280;15949;55.656;37.422;2024-02-04T04:37:50;96000.13;;;-0.05
28803;BMP280;15949;55.656;37.422;2024-02-04T04:42:55;95989.53;;;-0.03
28803;BMP280;15949;55.656;37.422;2024-02-04T04:48:02;95990.69;;;-0.01
28803;BMP280;15949;55.656;37.422;2024-02-04T04:53:07;95985.63;;;0.03
28803;BMP280;15949;55.656;37.422;2024-02-04T04:58:13;95978.69;;;0.03
28803;BMP280;15949;55.656;37.422;2024-02-04T05:03:19;95982.06;;;0.07
28803;BMP280;15949;55.656;37.422;2024-02-04T05:08:25;95974.72;;;0.06
28803;BMP280;15949;55.656;37.422;2024-02-04T05:13:30;95983.94;;;0.11
28803;BMP280;15949;55.656;37.422;2024-02-04T05:18:36;95975.88;;;0.08
28803;BMP280;15949;55.656;37.422;2024-02-04T05:23:42;95965.63;;;0.08
28803;BMP280;15949;55.656;37.422;2024-02-04T05:28:48;95970.06;;;0.12
28803;BMP280;15949;55.656;37.422;2024-02-04T05:33:55;95963.06;;;0.08
28803;BMP280;15949;55.656;37.422;2024-02-04T05:44:16;95968.09;;;0.05
28803;BMP280;15949;55.656;37.422;2024-02-04T05:49:22;95969.41;;;-0.05
28803;BMP280;15949;55.656;37.422;2024-02-04T05:54:28;95983.41;;;0.01
28803;BMP280;15949;55.656;37.422;2024-02-04T05:59:34;95977.47;;;-0.03
28803;BMP280;15949;55.656;37.422;2024-02-04T06:04:40;95981.91;;;0.00
28803;BMP280;15949;55.656;37.422;2024-02-04T06:09:45;95994.78;;;0.04
28803;BMP280;15949;55.656;37.422;2024-02-04T06:14:51;96011.69;;;0.08
28803;BMP280;15949;55.656;37.422;2024-02-04T06:19:57;96013.34;;;0.01
28803;BMP280;15949;55.656;37.422;2024-02-04T06:25:06;96017.63;;;-0.07
28803;BMP280;15949;55.656;37.422;2024-02-04T06:30:12;96022.47;;;-0.02
28803;BMP280;15949;55.656;37.422;2024-02-04T06:35:18;96032.63;;;-0.05
28803;BMP280;15949;55.656;37.422;2024-02-04T06:40:24;96050.28;;;-0.19
28803;BMP280;15949;55.656;37.422;2024-02-04T06:45:30;96049.75;;;-0.28
28803;BMP280;15949;55.656;37.422;2024-02-04T06:50:36;96071.09;;;-0.21
28803;BMP280;15949;55.656;37.422;2024-02-04T06:55:43;96071.25;;;-0.14
28803;BMP280;15949;55.656;37.422;2024-02-04T07:00:48;96074.25;;;-0.08
28803;BMP280;15949;55.656;37.422;2024-02-04T07:05:54;96073.63;;;-0.02
28803;BMP280;15949;55.656;37.422;2024-02-04T07:11:00;96088.03;;;0.06
28803;BMP280;15949;55.656;37.422;2024-02-04T07:16:06;96101.38;;;0.16
28803;BMP280;15949;55.656;37.422;2024-02-04T07:21:12;96093.69;;;-0.04
28803;BMP280;15949;55.656;37.422;2024-02-04T07:26:18;96102.88;;;0.17
28803;BMP280;15949;55.656;37.422;2024-02-04T07:31:23;96111.75;;;0.23
28803;BMP280;15949;55.656;37.422;2024-02-04T07:36:30;96123.00;;;0.18
28803;BMP280;15949;55.656;37.422;2024-02-04T07:41:35;96127.09;;;0.23
28803;BMP280;15949;55.656;37.422;2024-02-04T07:46:41;96138.03;;;0.20
28803;BMP280;15949;55.656;37.422;2024-02-04T07:51:47;96152.09;;;0.10
28803;BMP280;15949;55.656;37.422;2024-02-04T07:56:52;96169.38;;;-0.03
28803;BMP280;15949;55.656;37.422;2024-02-04T08:01:58;96174.09;;;-0.05
28803;BMP280;15949;55.656;37.422;2024-02-04T08:07:04;96185.06;;;-0.04
28803;BMP280;15949;55.656;37.422;2024-02-04T08:12:09;96202.97;;;-0.04
28803;BMP280;15949;55.656;37.422;2024-02-04T08:17:15;96214.97;;;-0.08
28803;BMP280;15949;55.656;37.422;2024-02-04T08:22:21;96218.63;;;-0.09
28803;BMP280;15949;55.656;37.422;2024-02-04T08:27:27;96232.97;;;-0.20
28803;BMP280;15949;55.656;37.422;2024-02-04T08:32:32;96232.47;;;-0.10
28803;BMP280;15949;55.656;37.422;2024-02-04T08:37:38;96243.84;;;-0.08
28803;BMP280;15949;55.656;37.422;2024-02-04T08:42:43;96249.69;;;0.08
28803;BMP280;15949;55.656;37.422;2024-02-04T08:47:49;96251.25;;;-0.03
28803;BMP280;15949;55.656;37.422;2024-02-04T08:52:55;96266.34;;;0.02
28803;BMP280;15949;55.656;37.422;2024-02-04T08:58:00;96274.03;;;0.02
28803;BMP280;15949;55.656;37.422;2024-02-04T09:03:06;96270.66;;;-0.02
28803;BMP280;15949;55.656;37.422;2024-02-04T09:08:12;96280.53;;;0.16
28803;BMP280;15949;55.656;37.422;2024-02-04T09:13:17;96283.94;;;0.39
28803;BMP280;15949;55.656;37.422;2024-02-04T09:18:23;96269.88;;;0.48
28803;BMP280;15949;55.656;37.422;2024-02-04T09:23:29;96276.06;;;0.47
28803;BMP280;15949;55.656;37.422;2024-02-04T09:28:34;96284.44;;;0.29
28803;BMP280;15949;55.656;37.422;2024-02-04T09:33:40;96299.28;;;0.20
28803;BMP280;15949;55.656;37.422;2024-02-04T09:38:46;96295.81;;;0.47
28803;BMP280;15949;55.656;37.422;2024-02-04T09:43:52;96296.22;;;0.68
28803;BMP280;15949;55.656;37.422;2024-02-04T09:48:58;96302.91;;;0.53
28803;BMP280;15949;55.656;37.422;2024-02-04T09:54:05;96303.50;;;0.47
28803;BMP280;15949;55.656;37.422;2024-02-04T09:59:14;96297.81;;;0.38
28803;BMP280;15949;55.656;37.422;2024-02-04T10:04:19;96304.19;;;0.09
28803;BMP280;15949;55.656;37.422;2024-02-04T10:09:25;96318.09;;;-0.04
28803;BMP280;15949;55.656;37.422;2024-02-04T10:14:31;96328.75;;;0.14
28803;BMP280;15949;55.656;37.422;2024-02-04T10:19:36;96331.97;;;0.26
28803;BMP280;15949;55.656;37.422;2024-02-04T10:24:43;96331.22;;;0.26
28803;BMP280;15949;55.656;37.422;2024-02-04T10:29:48;96328.03;;;0.48
28803;BMP280;15949;55.656;37.422;2024-02-04T10:34:54;96327.22;;;0.44
28803;BMP280;15949;55.656;37.422;2024-02-04T10:40:00;96322.75;;;0.41
28803;BMP280;15949;55.656;37.422;2024-02-04T10:45:08;96332.28;;;0.60
28803;BMP280;15949;55.656;37.422;2024-02-04T10:50:15;96334.47;;;0.77
28803;BMP280;15949;55.656;37.422;2024-02-04T10:55:26;96342.97;;;0.81
28803;BMP280;15949;55.656;37.422;2024-02-04T11:00:34;96350.03;;;1.07
28803;BMP280;15949;55.656;37.422;2024-02-04T11:05:42;96359.78;;;0.97
28803;BMP280;15949;55.656;37.422;2024-02-04T11:10:48;96352.16;;;1.24
28803;BMP280;15949;55.656;37.422;2024-02-04T11:15:56;96350.75;;;1.26
28803;BMP280;15949;55.656;37.422;2024-02-04T11:26:27;96338.53;;;1.84
28803;BMP280;15949;55.656;37.422;2024-02-04T11:31:33;96358.72;;;1.40
28803;BMP280;15949;55.656;37.422;2024-02-04T11:36:39;96366.47;;;1.44
28803;BMP280;15949;55.656;37.422;2024-02-04T11:41:48;96358.91;;;1.32
28803;BMP280;15949;55.656;37.422;2024-02-04T11:46:54;96363.66;;;1.11
28803;BMP280;15949;55.656;37.422;2024-02-04T11:52:00;96370.28;;;0.92
28803;BMP280;15949;55.656;37.422;2024-02-04T11:57:06;96370.69;;;0.60
28803;BMP280;15949;55.656;37.422;2024-02-04T12:02:12;96378.97;;;1.07
28803;BMP280;15949;55.656;37.422;2024-02-04T12:07:17;96372.69;;;1.04
28803;BMP280;15949;55.656;37.422;2024-02-04T12:12:24;96380.94;;;0.94
28803;BMP280;15949;55.656;37.422;2024-02-04T12:17:30;96385.84;;;1.03
28803;BMP280;15949;55.656;37.422;2024-02-04T12:22:36;96386.25;;;0.86
28803;BMP280;15949;55.656;37.422;2024-02-04T12:27:42;96393.72;;;0.40
28803;BMP280;15949;55.656;37.422;2024-02-04T12:33:05;96389.19;;;0.34
28803;BMP280;15949;55.656;37.422;2024-02-04T12:38:11;96392.66;;;0.26
28803;BMP280;15949;55.656;37.422;2024-02-04T12:43:17;96395.81;;;0.19
28803;BMP280;15949;55.656;37.422;2024-02-04T12:48:22;96398.13;;;0.08
28803;BMP280;15949;55.656;37.422;2024-02-04T12:53:31;96389.09;;;0.15
28803;BMP280;15949;55.656;37.422;2024-02-04T12:58:42;96404.22;;;0.20
28803;BMP280;15949;55.656;37.422;2024-02-04T13:03:47;96394.56;;;0.13
28803;BMP280;15949;55.656;37.422;2024-02-04T13:08:55;96403.72;;;0.14
28803;BMP280;15949;55.656;37.422;2024-02-04T13:14:04;96412.91;;;0.15
28803;BMP280;15949;55.656;37.422;2024-02-04T13:19:10;96411.56;;;0.05
28803;BMP280;15949;55.656;37.422;2024-02-04T13:24:15;96410.31;;;-0.01
28803;BMP280;15949;55.656;37.422;2024-02-04T13:29:21;96412.38;;;-0.06
28803;BMP280;15949;55.656;37.422;2024-02-04T13:34:26;96406.25;;;-0.17
28803;BMP280;15949;55.656;37.422;2024-02-04T13:39:32;96421.13;;;-0.23
28803;BMP280;15949;55.656;37.422;2024-02-04T13:44:38;96421.66;;;-0.29
28803;BMP280;15949;55.656;37.422;2024-02-04T13:49:43;96421.91;;;-0.34
28803;BMP280;15949;55.656;37.422;2024-02-04T13:54:49;96414.97;;;-0.34
28803;BMP280;15949;55.656;37.422;2024-02-04T13:59:55;96422.66;;;-0.34
28803;BMP280;15949;55.656;37.422;2024-02-04T14:05:00;96424.94;;;-0.45
28803;BMP280;15949;55.656;37.422;2024-02-04T14:10:07;96422.88;;;-0.55
28803;BMP280;15949;55.656;37.422;2024-02-04T14:15:14;96428.28;;;-0.56
28803;BMP280;15949;55.656;37.422;2024-02-04T14:20:19;96421.00;;;-0.42
28803;BMP280;15949;55.656;37.422;2024-02-04T14:25:25;96423.13;;;-0.44
28803;BMP280;15949;55.656;37.422;2024-02-04T14:30:30;96429.81;;;-0.40
28803;BMP280;15949;55.656;37.422;2024-02-04T14:35:36;96416.69;;;-0.38
28803;BMP280;15949;55.656;37.422;2024-02-04T14:40:42;96427.34;;;-0.36
28803;BMP280;15949;55.656;37.422;2024-02-04T14:45:48;96429.56;;;-0.34
28803;BMP280;15949;55.656;37.422;2024-02-04T14:50:53;96423.13;;;-0.44
28803;BMP280;15949;55.656;37.422;2024-02-04T14:55:59;96430.41;;;-0.46
28803;BMP280;15949;55.656;37.422;2024-02-04T15:01:05;96442.59;;;-0.40
28803;BMP280;15949;55.656;37.422;2024-02-04T15:06:11;96440.97;;;-0.32
28803;BMP280;15949;55.656;37.422;2024-02-04T15:11:17;96434.91;;;-0.27
28803;BMP280;15949;55.656;37.422;2024-02-04T15:16:23;96438.16;;;-0.27
28803;BMP280;15949;55.656;37.422;2024-02-04T15:21:28;96442.44;;;-0.31
28803;BMP280;15949;55.656;37.422;2024-02-04T15:26:35;96430.53;;;-0.39
28803;BMP280;15949;55.656;37.422;2024-02-04T15:31:45;96436.72;;;-0.40
28803;BMP280;15949;55.656;37.422;2024-02-04T15:36:54;96436.50;;;-0.35
28803;BMP280;15949;55.656;37.422;2024-02-04T15:42:00;96427.69;;;-0.38
28803;BMP280;15949;55.656;37.422;2024-02-04T15:47:11;96438.00;;;-0.34
28803;BMP280;15949;55.656;37.422;2024-02-04T15:52:17;96436.50;;;-0.35
28803;BMP280;15949;55.656;37.422;2024-02-04T15:57:29;96432.22;;;-0.31
28803;BMP280;15949;55.656;37.422;2024-02-04T16:02:39;96422.25;;;-0.36
28803;BMP280;15949;55.656;37.422;2024-02-04T16:07:49;96420.84;;;-0.33
28803;BMP280;15949;55.656;37.422;2024-02-04T16:12:58;96411.13;;;-0.28
28803;BMP280;15949;55.656;37.422;2024-02-04T16:18:05;96420.25;;;-0.27
28803;BMP280;15949;55.656;37.422;2024-02-04T16:23:12;96410.53;;;-0.21
28803;BMP280;15949;55.656;37.422;2024-02-04T16:28:18;96400.00;;;-0.20
28803;BMP280;15949;55.656;37.422;2024-02-04T16:33:24;96403.31;;;-0.19
28803;BMP280;15949;55.656;37.422;2024-02-04T16:38:29;96397.00;;;-0.22
28803;BMP280;15949;55.656;37.422;2024-02-04T16:43:35;96399.31;;;-0.32
28803;BMP280;15949;55.656;37.422;2024-02-04T16:48:42;96402.47;;;-0.23
28803;BMP280;15949;55.656;37.422;2024-02-04T16:53:48;96408.97;;;-0.26
28803;BMP280;15949;55.656;37.422;2024-02-04T16:58:54;96396.94;;;-0.25
28803;BMP280;15949;55.656;37.422;2024-02-04T17:04:00;96403.34;;;-0.31
28803;BMP280;15949;55.656;37.422;2024-02-04T17:09:06;96392.44;;;-0.44
28803;BMP280;15949;55.656;37.422;2024-02-04T17:14:19;96391.06;;;-0.42
28803;BMP280;15949;55.656;37.422;2024-02-04T17:24:55;96389.56;;;-0.43
28803;BMP280;15949;55.656;37.422;2024-02-04T17:30:06;96385.19;;;-0.42
28803;BMP280;15949;55.656;37.422;2024-02-04T17:35:15;96369.78;;;-0.46
28803;BMP280;15949;55.656;37.422;2024-02-04T17:40:24;96372.34;;;-0.46
28803;BMP280;15949;55.656;37.422;2024-02-04T17:45:31;96375.53;;;-0.49
28803;BMP280;15949;55.656;37.422;2024-02-04T17:50:43;96377.34;;;-0.49
28803;BMP280;15949;55.656;37.422;2024-02-04T17:55:48;96377.75;;;-0.47
28803;BMP280;15949;55.656;37.422;2024-02-04T18:00:54;96384.78;;;-0.44
28803;BMP280;15949;55.656;37.422;2024-02-04T18:06:00;96380.22;;;-0.51
28803;BMP280;15949;55.656;37.422;2024-02-04T18:11:19;96384.41;;;-0.58
28803;BMP280;15949;55.656;37.422;2024-02-04T18:16:25;96383.25;;;-0.61
28803;BMP280;15949;55.656;37.422;2024-02-04T18:21:31;96379.53;;;-0.63
28803;BMP280;15949;55.656;37.422;2024-02-04T18:26:36;96390.31;;;-0.70
28803;BMP280;15949;55.656;37.422;2024-02-04T18:31:42;96394.44;;;-0.65
28803;BMP280;15949;55.656;37.422;2024-02-04T18:36:51;96388.78;;;-0.87
28803;BMP280;15949;55.656;37.422;2024-02-04T18:41:56;96399.44;;;-0.97
28803;BMP280;15949;55.656;37.422;2024-02-04T18:47:02;96395.63;;;-1.03
28803;BMP280;15949;55.656;37.422;2024-02-04T18:52:09;96395.84;;;-1.08
28803;BMP280;15949;55.656;37.422;2024-02-04T18:57:14;96401.91;;;-1.12
28803;BMP280;15949;55.656;37.422;2024-02-04T19:02:20;96403.31;;;-1.27
28803;BMP280;15949;55.656;37.422;2024-02-04T19:07:25;96406.63;;;-1.39
28803;BMP280;15949;55.656;37.422;2024-02-04T19:12:31;96412.06;;;-1.40
28803;BMP280;15949;55.656;37.422;2024-02-04T19:17:37;96416.00;;;-1.43
28803;BMP280;15949;55.656;37.422;2024-02-04T19:22:43;96418.34;;;-1.38
28803;BMP280;15949;55.656;37.422;2024-02-04T19:27:54;96418.66;;;-1.39
28803;BMP280;15949;55.656;37.422;2024-02-04T19:32:59;96424.41;;;-1.42
28803;BMP280;15949;55.656;37.422;2024-02-04T19:38:05;96417.50;;;-1.42
28803;BMP280;15949;55.656;37.422;2024-02-04T19:43:11;96426.06;;;-1.34
28803;BMP280;15949;55.656;37.422;2024-02-04T19:48:17;96423.03;;;-1.40
28803;BMP280;15949;55.656;37.422;2024-02-04T19:53:23;96423.56;;;-1.46
28803;BMP280;15949;55.656;37.422;2024-02-04T19:58:29;96420.34;;;-1.43
28803;BMP280;15949;55.656;37.422;2024-02-04T20:03:34;96423.25;;;-1.45
28803;BMP280;15949;55.656;37.422;2024-02-04T20:08:40;96422.72;;;-1.50
28803;BMP280;15949;55.656;37.422;2024-02-04T20:13:46;96433.13;;;-1.43
28803;BMP280;15949;55.656;37.422;2024-02-04T20:18:51;96425.47;;;-1.43
28803;BMP280;15949;55.656;37.422;2024-02-04T20:24:00;96427.06;;;-1.39
28803;BMP280;15949;55.656;37.422;2024-02-04T20:29:06;96423.34;;;-1.41
28803;BMP280;15949;55.656;37.422;2024-02-04T20:34:12;96431.41;;;-1.39
28803;BMP280;15949;55.656;37.422;2024-02-04T20:39:17;96435.06;;;-1.40
28803;BMP280;15949;55.656;37.422;2024-02-04T20:44:24;96438.66;;;-1.41
28803;BMP280;15949;55.656;37.422;2024-02-04T20:49:30;96441.88;;;-1.44
28803;BMP280;15949;55.656;37.422;2024-02-04T20:54:36;96451.19;;;-1.48
28803;BMP280;15949;55.656;37.422;2024-02-04T20:59:42;96452.28;;;-1.49
28803;BMP280;15949;55.656;37.422;2024-02-04T21:04:48;96457.38;;;-1.49
28803;BMP280;15949;55.656;37.422;2024-02-04T21:09:54;96442.38;;;-1.51
28803;BMP280;15949;55.656;37.422;2024-02-04T21:14:59;96438.97;;;-1.43
28803;BMP280;15949;55.656;37.422;2024-02-04T21:20:09;96434.63;;;-1.42
28803;BMP280;15949;55.656;37.422;2024-02-04T21:25:15;96443.66;;;-1.45
28803;BMP280;15949;55.656;37.422;2024-02-04T21:30:21;96430.25;;;-1.42
28803;BMP280;15949;55.656;37.422;2024-02-04T21:35:26;96431.41;;;-1.39
28803;BMP280;15949;55.656;37.422;2024-02-04T21:40:32;96434.38;;;-1.25
28803;BMP280;15949;55.656;37.422;2024-02-04T21:45:38;96453.00;;;-1.24
28803;BMP280;15949;55.656;37.422;2024-02-04T21:50:43;96457.91;;;-1.32
28803;BMP280;15949;55.656;37.422;2024-02-04T21:55:49;96449.72;;;-1.37
28803;BMP280;15949;55.656;37.422;2024-02-04T22:00:56;96447.69;;;-1.56
28803;BMP280;15949;55.656;37.422;2024-02-04T22:06:03;96450.22;;;-1.68
28803;BMP280;15949;55.656;37.422;2024-02-04T22:11:08;96455.44;;;-1.64
28803;BMP280;15949;55.656;37.422;2024-02-04T22:16:14;96452.97;;;-1.73
28803;BMP280;15949;55.656;37.422;2024-02-04T22:21:21;96449.25;;;-1.75
28803;BMP280;15949;55.656;37.422;2024-02-04T22:26:26;96455.75;;;-1.66
28803;BMP280;15949;55.656;37.422;2024-02-04T22:31:32;96462.78;;;-1.63
28803;BMP280;15949;55.656;37.422;2024-02-04T22:36:38;96463.72;;;-1.67
28803;BMP280;15949;55.656;37.422;2024-02-04T22:41:44;96456.59;;;-1.74
28803;BMP280;15949;55.656;37.422;2024-02-04T22:46:50;96450.63;;;-1.78
28803;BMP280;15949;55.656;37.422;2024-02-04T22:51:57;96441.28;;;-1.74
28803;BMP280;15949;55.656;37.422;2024-02-04T22:57:02;96444.34;;;-1.81
28803;BMP280;15949;55.656;37.422;2024-02-04T23:02:08;96449.47;;;-1.81
28803;BMP280;15949;55.656;37.422;2024-02-04T23:07:15;96436.47;;;-1.88
28803;BMP280;15949;55.656;37.422;2024-02-04T23:12:21;96447.31;;;-1.91
28803;BMP280;15949;55.656;37.422;2024-02-04T23:17:26;96428.47;;;-1.98
28803;BMP280;15949;55.656;37.422;2024-02-04T23:22:32;96430.75;;;-2.17
28803;BMP280;15949;55.656;37.422;2024-02-04T23:27:38;96430.78;;;-2.38
28803;BMP280;15949;55.656;37.422;2024-02-04T23:32:43;96433.00;;;-2.49
28803;BMP280;15949;55.656;37.422;2024-02-04T23:37:49;96427.53;;;-2.39
28803;BMP280;15949;55.656;37.422;2024-02-04T23:42:54;96424.00;;;-2.34
28803;BMP280;15949;55.656;37.422;2024-02-04T23:48:00;96418.75;;;-2.38
28803;BMP280;15949;55.656;37.422;2024-02-04T23:53:06;96425.47;;;-2.33
28803;BMP280;15949;55.656;37.422;2024-02-04T23:58:13;96421.25;;;-2.29
